Time;durP1;ratioP1;P1;durP2;ratioP2;P2;SDS_P1;SDS_P2;PMS_P1;PMS_P2;Temp;Humidity;BMP_temperature;BMP_pressure;BME280_temperature;BME280_humidity;BME280_pressure;Samples;Min_cycle;Max_cycle;Signal;HPM_P1;HPM_P2
2024/02/02 00:00:14;;;;;;;0.10;0.10;;;8.90;99.90;;;;;;5007843;28;20026;-78
2024/02/02 00:02:39;;;;;;;0.10;0.10;;;9.00;99.90;;;;;;5012502;28;20489;-79
2024/02/02 00:05:06;;;;;;;0.10;0.10;;;9.00;99.90;;;;;;5006579;28;20115;-79
2024/02/02 00:07:31;;;;;;;0.43;0.43;;;9.00;99.90;;;;;;5005812;28;20045;-79
2024/02/02 00:09:57;;;;;;;0.10;0.10;;;9.00;99.90;;;;;;5007623;28;20622;-79
2024/02/02 00:12:23;;;;;;;0.15;0.15;;;8.90;99.90;;;;;;5010462;28;20022;-79
2024/02/02 00:14:49;;;;;;;0.10;0.10;;;8.80;99.90;;;;;;5008921;28;20072;-79
2024/02/02 00:17:14;;;;;;;0.00;0.00;;;8.90;99.90;;;;;;5005691;28;20124;-80
2024/02/02 00:19:40;;;;;;;0.10;0.10;;;8.90;99.90;;;;;;5006972;28;20089;-80
2024/02/02 00:22:07;;;;;;;0.10;0.10;;;8.90;99.90;;;;;;5013789;28;20087;-79
2024/02/02 00:24:32;;;;;;;0.50;0.50;;;8.90;99.90;;;;;;5007019;28;20033;-80
2024/02/02 00:26:58;;;;;;;0.10;0.10;;;8.80;99.90;;;;;;5006402;28;20513;-81
2024/02/02 00:29:23;;;;;;;0.10;0.10;;;8.90;99.90;;;;;;5008404;28;20030;-79
2024/02/02 00:31:49;;;;;;;0.10;0.10;;;8.90;99.90;;;;;;5007494;28;20030;-79
2024/02/02 00:34:15;;;;;;;0.10;0.10;;;8.90;99.90;;;;;;5007153;28;20029;-79
2024/02/02 00:36:41;;;;;;;0.07;0.07;;;8.90;99.90;;;;;;5007355;28;20029;-80
2024/02/02 00:39:07;;;;;;;0.10;0.10;;;8.80;99.90;;;;;;5007822;28;20824;-79
2024/02/02 00:41:32;;;;;;;0.10;0.10;;;8.80;99.90;;;;;;5010168;28;20438;-80
2024/02/02 00:43:58;;;;;;;0.00;0.00;;;8.80;99.90;;;;;;5007223;28;20080;-79
2024/02/02 00:46:24;;;;;;;0.10;0.10;;;8.80;99.90;;;;;;5011416;28;20052;-79
2024/02/02 00:48:49;;;;;;;1.30;1.20;;;8.80;99.90;;;;;;5006676;28;20030;-79
2024/02/02 00:51:15;;;;;;;0.10;0.10;;;8.70;99.90;;;;;;5007444;28;20022;-78
2024/02/02 00:53:41;;;;;;;0.30;0.30;;;8.70;99.90;;;;;;5006505;28;20517;-78
2024/02/02 00:56:06;;;;;;;0.10;0.10;;;8.70;99.90;;;;;;5006725;28;20022;-78
2024/02/02 00:58:32;;;;;;;2.50;0.68;;;8.70;99.90;;;;;;5006665;28;20084;-78
2024/02/02 01:00:57;;;;;;;0.30;0.30;;;8.70;99.90;;;;;;5005519;28;20038;-78
2024/02/02 01:03:23;;;;;;;0.22;0.22;;;8.70;99.90;;;;;;5007060;28;20044;-78
2024/02/02 01:05:49;;;;;;;0.10;0.10;;;8.70;99.90;;;;;;5007428;28;20038;-78
2024/02/02 01:08:14;;;;;;;0.10;0.10;;;8.70;99.90;;;;;;5007487;28;20130;-79
2024/02/02 01:10:40;;;;;;;0.20;0.20;;;8.70;99.90;;;;;;5010483;28;20126;-79
2024/02/02 01:13:06;;;;;;;0.00;0.00;;;8.60;99.90;;;;;;5007717;28;20029;-79
2024/02/02 01:15:31;;;;;;;0.10;0.10;;;8.70;99.90;;;;;;5006730;28;20572;-78
2024/02/02 01:17:57;;;;;;;0.05;0.05;;;8.70;99.90;;;;;;5006020;28;20061;-78
2024/02/02 01:20:23;;;;;;;0.10;0.10;;;8.70;99.90;;;;;;5008297;28;20109;-78
2024/02/02 01:22:49;;;;;;;0.10;0.10;;;8.70;99.90;;;;;;5007634;28;20453;-78
2024/02/02 01:25:15;;;;;;;0.20;0.20;;;8.80;99.90;;;;;;5006331;28;20093;-78
2024/02/02 01:27:41;;;;;;;0.03;0.03;;;8.70;99.90;;;;;;5005877;28;20531;-78
2024/02/02 01:30:08;;;;;;;0.15;0.15;;;8.70;99.90;;;;;;5011632;28;20026;-78
2024/02/02 01:32:34;;;;;;;;;;;8.70;99.90;;;;;;5015111;28;20033;-79
2024/02/02 01:35:00;;;;;;;0.03;0.03;;;8.80;99.90;;;;;;5009433;28;19918;-79
2024/02/02 01:37:25;;;;;;;0.15;0.15;;;8.80;99.90;;;;;;5009201;28;20038;-79
2024/02/02 01:39:51;;;;;;;0.10;0.10;;;8.80;99.90;;;;;;5010143;28;20026;-79
2024/02/02 01:42:17;;;;;;;0.28;0.28;;;8.80;99.90;;;;;;5010313;28;20033;-80
2024/02/02 01:44:43;;;;;;;0.30;0.30;;;8.90;99.90;;;;;;5010313;28;20061;-80
2024/02/02 01:47:09;;;;;;;0.10;0.10;;;8.90;99.90;;;;;;5010320;28;20053;-79
2024/02/02 01:49:34;;;;;;;0.10;0.10;;;8.90;99.90;;;;;;5010994;28;20030;-78
2024/02/02 01:52:01;;;;;;;0.10;0.10;;;8.90;99.90;;;;;;5010001;28;20029;-78
2024/02/02 01:54:28;;;;;;;0.10;0.10;;;8.90;99.90;;;;;;5011337;28;20041;-77
2024/02/02 01:56:54;;;;;;;0.05;0.05;;;9.00;99.90;;;;;;5008957;28;20014;-77
2024/02/02 01:59:20;;;;;;;0.10;0.10;;;9.00;99.90;;;;;;5009276;28;20034;-77
2024/02/02 02:01:46;;;;;;;0.10;0.10;;;9.00;99.90;;;;;;5005775;28;20622;-78
2024/02/02 02:04:12;;;;;;;0.10;0.10;;;8.90;99.90;;;;;;5007145;28;20663;-78
2024/02/02 02:06:40;;;;;;;0.10;0.10;;;8.90;99.90;;;;;;5011496;28;20600;-78
2024/02/02 02:09:09;;;;;;;0.10;0.10;;;8.90;99.90;;;;;;5022927;28;20069;-79
2024/02/02 02:11:34;;;;;;;0.10;0.10;;;8.90;99.90;;;;;;5009986;28;20033;-77
2024/02/02 02:14:00;;;;;;;0.10;0.10;;;8.90;99.90;;;;;;5009684;28;20026;-78
2024/02/02 02:16:26;;;;;;;0.10;0.10;;;8.90;99.90;;;;;;5010247;28;20040;-78
2024/02/02 02:18:51;;;;;;;0.10;0.10;;;8.90;99.90;;;;;;5008340;28;20040;-78
2024/02/02 02:21:27;;;;;;;0.10;0.10;;;8.90;99.90;;;;;;5014919;28;20030;-78
2024/02/02 02:23:53;;;;;;;0.10;0.10;;;8.80;99.90;;;;;;5011939;28;20025;-77
2024/02/02 02:26:19;;;;;;;0.17;0.17;;;8.80;99.90;;;;;;5007975;28;20038;-78
2024/02/02 02:28:45;;;;;;;0.67;0.40;;;8.90;99.90;;;;;;5010504;28;20022;-78
2024/02/02 02:31:12;;;;;;;0.40;0.40;;;8.90;99.90;;;;;;5006395;28;20596;-78
2024/02/02 02:33:39;;;;;;;0.10;0.10;;;8.90;99.90;;;;;;5009333;28;20030;-78
2024/02/02 02:36:05;;;;;;;0.30;0.30;;;8.90;99.90;;;;;;5007915;28;20069;-80
2024/02/02 02:38:30;;;;;;;0.10;0.10;;;8.90;99.90;;;;;;5012797;28;20052;-79
2024/02/02 02:40:56;;;;;;;1.02;0.93;;;8.90;99.90;;;;;;5007044;28;20041;-79
2024/02/02 02:43:22;;;;;;;0.10;0.10;;;8.80;99.90;;;;;;5009788;28;20181;-78
2024/02/02 02:45:47;;;;;;;0.10;0.10;;;8.80;99.90;;;;;;5003990;28;20838;-79
2024/02/02 02:48:13;;;;;;;0.10;0.10;;;8.90;99.90;;;;;;5007286;28;20072;-79
2024/02/02 02:50:39;;;;;;;0.10;0.10;;;8.90;99.90;;;;;;5008413;28;20050;-79
2024/02/02 02:53:04;;;;;;;0.10;0.10;;;8.90;99.90;;;;;;5013860;28;20067;-80
2024/02/02 02:55:30;;;;;;;0.05;0.05;;;8.90;99.90;;;;;;5009818;28;20868;-80
2024/02/02 02:57:56;;;;;;;0.10;0.10;;;8.80;99.90;;;;;;5009721;28;20026;-80
2024/02/02 03:00:27;;;;;;;0.10;0.10;;;8.80;99.90;;;;;;5008444;28;20040;-79
2024/02/02 03:02:54;;;;;;;0.20;0.20;;;8.80;99.90;;;;;;5011701;28;20030;-79
2024/02/02 03:05:20;;;;;;;0.10;0.10;;;8.80;99.90;;;;;;5011537;28;20060;-79
2024/02/02 03:07:46;;;;;;;0.00;0.00;;;8.80;99.90;;;;;;5013723;28;20029;-79
2024/02/02 03:10:12;;;;;;;0.13;0.13;;;8.80;99.90;;;;;;5008085;28;20030;-79
2024/02/02 03:12:37;;;;;;;0.00;0.00;;;8.80;99.90;;;;;;5009008;28;20010;-79
2024/02/02 03:15:03;;;;;;;0.10;0.10;;;8.70;99.90;;;;;;5009859;28;20109;-79
2024/02/02 03:17:29;;;;;;;0.10;0.10;;;8.70;99.90;;;;;;5008425;28;20022;-79
2024/02/02 03:19:54;;;;;;;0.10;0.10;;;8.70;99.90;;;;;;5009095;28;20507;-80
2024/02/02 03:22:20;;;;;;;0.10;0.10;;;8.60;99.90;;;;;;5011597;28;20519;-80
2024/02/02 03:24:46;;;;;;;0.10;0.10;;;8.50;99.90;;;;;;5008099;28;20046;-80
2024/02/02 03:27:11;;;;;;;0.07;0.07;;;8.50;99.90;;;;;;5008513;28;20053;-81
2024/02/02 03:29:37;;;;;;;0.10;0.10;;;8.30;99.90;;;;;;5008753;28;20026;-80
2024/02/02 03:32:03;;;;;;;0.10;0.10;;;8.30;99.90;;;;;;5009301;28;20030;-81
2024/02/02 03:34:29;;;;;;;0.20;0.20;;;8.20;99.90;;;;;;5006835;28;20111;-80
2024/02/02 03:36:55;;;;;;;0.10;0.10;;;8.20;99.90;;;;;;5006819;28;20072;-80
2024/02/02 03:39:21;;;;;;;0.10;0.10;;;8.20;99.90;;;;;;5008635;28;20076;-80
2024/02/02 03:41:46;;;;;;;0.10;0.10;;;8.30;99.90;;;;;;5009580;28;20034;-79
2024/02/02 03:44:12;;;;;;;0.10;0.10;;;8.40;99.90;;;;;;5008066;28;20069;-79
2024/02/02 03:46:38;;;;;;;0.10;0.10;;;8.40;99.90;;;;;;5008696;28;20025;-79
2024/02/02 03:49:03;;;;;;;0.10;0.10;;;8.50;99.90;;;;;;5010250;28;20044;-78
2024/02/02 03:51:29;;;;;;;0.25;0.25;;;8.60;99.90;;;;;;5019271;28;20106;-79
2024/02/02 03:53:55;;;;;;;0.40;0.40;;;8.50;99.90;;;;;;5009274;28;20033;-80
2024/02/02 03:56:21;;;;;;;0.10;0.10;;;8.50;99.90;;;;;;5005183;28;20029;-80
2024/02/02 03:58:46;;;;;;;0.13;0.13;;;8.50;99.90;;;;;;5008465;28;20029;-80
2024/02/02 04:01:12;;;;;;;0.03;0.03;;;8.40;99.90;;;;;;5007921;28;20029;-79
2024/02/02 04:03:38;;;;;;;0.10;0.10;;;8.30;99.90;;;;;;5006329;28;20037;-78
2024/02/02 04:06:03;;;;;;;0.08;0.08;;;8.30;99.90;;;;;;5007210;28;20928;-79
2024/02/02 04:08:29;;;;;;;0.08;0.08;;;8.20;99.90;;;;;;5006120;28;20076;-78
2024/02/02 04:10:55;;;;;;;0.00;0.00;;;8.30;99.90;;;;;;5007600;28;20041;-79
2024/02/02 04:13:20;;;;;;;0.10;0.10;;;8.30;99.90;;;;;;5009701;28;20061;-78
2024/02/02 04:15:47;;;;;;;0.00;0.00;;;8.30;99.90;;;;;;5007155;28;20034;-78
2024/02/02 04:18:12;;;;;;;0.00;0.00;;;8.40;99.90;;;;;;5020328;28;20509;-79
2024/02/02 04:20:38;;;;;;;0.10;0.10;;;8.40;99.90;;;;;;5006151;28;20060;-79
2024/02/02 04:23:04;;;;;;;0.10;0.10;;;8.30;99.90;;;;;;5009812;28;20123;-79
2024/02/02 04:25:29;;;;;;;0.10;0.10;;;8.30;99.90;;;;;;5005450;28;20026;-79
2024/02/02 04:27:55;;;;;;;0.10;0.10;;;8.20;99.90;;;;;;5006127;28;20037;-78
2024/02/02 04:30:21;;;;;;;0.10;0.10;;;8.10;99.90;;;;;;5008782;28;20056;-78
2024/02/02 04:32:46;;;;;;;0.10;0.10;;;8.10;99.90;;;;;;5006090;28;20061;-78
2024/02/02 04:35:12;;;;;;;0.10;0.10;;;8.00;99.90;;;;;;5007177;28;20141;-78
2024/02/02 04:37:42;;;;;;;0.10;0.10;;;8.00;99.90;;;;;;5007355;28;20040;-79
2024/02/02 04:40:09;;;;;;;0.10;0.10;;;8.10;99.90;;;;;;5005782;28;20030;-79
2024/02/02 04:42:35;;;;;;;0.10;0.10;;;8.20;99.90;;;;;;5006894;28;20105;-79
2024/02/02 04:45:01;;;;;;;0.10;0.10;;;8.20;99.90;;;;;;5006172;28;20812;-77
2024/02/02 04:47:26;;;;;;;0.10;0.10;;;8.40;99.90;;;;;;5007031;28;20508;-77
2024/02/02 04:49:52;;;;;;;0.00;0.00;;;8.50;99.90;;;;;;5006530;28;20026;-78
2024/02/02 04:52:18;;;;;;;0.10;0.10;;;8.50;99.90;;;;;;5007412;28;20029;-79
2024/02/02 04:54:43;;;;;;;0.10;0.10;;;8.60;99.90;;;;;;5007012;28;20517;-79
2024/02/02 04:57:09;;;;;;;0.10;0.10;;;8.70;99.90;;;;;;5006486;28;20620;-79
2024/02/02 04:59:34;;;;;;;0.10;0.10;;;8.70;99.90;;;;;;5007790;28;20025;-79
2024/02/02 05:02:00;;;;;;;0.10;0.10;;;8.70;99.90;;;;;;5010108;28;20528;-79
2024/02/02 05:04:26;;;;;;;0.08;0.08;;;8.60;99.90;;;;;;5010354;28;21591;-79
2024/02/02 05:06:51;;;;;;;0.10;0.10;;;8.60;99.90;;;;;;5012606;28;20473;-80
2024/02/02 05:09:17;;;;;;;0.10;0.10;;;8.60;99.90;;;;;;5010883;28;20105;-80
2024/02/02 05:11:42;;;;;;;0.10;0.10;;;8.60;99.90;;;;;;5011569;28;20026;-79
2024/02/02 05:14:08;;;;;;;0.00;0.00;;;8.70;99.90;;;;;;5011744;28;20022;-78
2024/02/02 05:16:34;;;;;;;0.10;0.10;;;8.60;99.90;;;;;;5010738;28;20025;-78
2024/02/02 05:18:59;;;;;;;0.10;0.10;;;8.60;99.90;;;;;;5010939;28;20034;-79
2024/02/02 05:21:26;;;;;;;0.10;0.10;;;8.50;99.90;;;;;;5009823;28;20227;-79
2024/02/02 05:23:52;;;;;;;0.10;0.10;;;8.60;99.90;;;;;;5010275;28;20033;-79
2024/02/02 05:26:17;;;;;;;0.10;0.10;;;8.60;99.90;;;;;;5009945;28;20037;-79
2024/02/02 05:28:43;;;;;;;0.10;0.10;;;8.50;99.90;;;;;;5009775;28;20045;-79
2024/02/02 05:31:09;;;;;;;0.13;0.13;;;8.40;99.90;;;;;;5009802;28;20026;-79
2024/02/02 05:33:35;;;;;;;0.10;0.10;;;8.50;99.90;;;;;;5009644;28;20141;-78
2024/02/02 05:36:01;;;;;;;0.10;0.10;;;8.40;99.90;;;;;;5008885;28;20517;-77
2024/02/02 05:38:26;;;;;;;0.00;0.00;;;8.40;99.90;;;;;;5009527;28;20030;-79
2024/02/02 05:40:52;;;;;;;0.10;0.10;;;8.50;99.90;;;;;;5008269;28;20032;-78
2024/02/02 05:43:18;;;;;;;0.38;0.38;;;8.40;99.90;;;;;;5011125;28;20037;-78
2024/02/02 05:45:43;;;;;;;0.10;0.10;;;8.40;99.90;;;;;;5010146;28;20037;-79
2024/02/02 05:48:09;;;;;;;0.32;0.32;;;8.40;99.90;;;;;;5009034;28;20713;-79
2024/02/02 05:50:35;;;;;;;0.10;0.10;;;8.40;99.90;;;;;;5008293;28;20048;-79
2024/02/02 05:53:01;;;;;;;0.08;0.08;;;8.40;99.90;;;;;;5010389;28;20063;-78
2024/02/02 05:55:26;;;;;;;0.10;0.10;;;8.30;99.90;;;;;;5009616;28;20082;-79
2024/02/02 05:57:52;;;;;;;0.10;0.10;;;8.30;99.90;;;;;;5007480;28;20124;-79
2024/02/02 06:00:18;;;;;;;0.00;0.00;;;8.40;99.90;;;;;;5008980;28;20101;-79
2024/02/02 06:02:47;;;;;;;0.55;0.55;;;8.40;99.90;;;;;;5007868;28;20042;-79
2024/02/02 06:05:13;;;;;;;0.10;0.10;;;8.30;99.90;;;;;;5012425;28;20684;-79
2024/02/02 06:07:39;;;;;;;0.57;0.57;;;8.30;99.90;;;;;;5007383;28;20038;-77
2024/02/02 06:10:05;;;;;;;0.33;0.33;;;8.40;99.90;;;;;;5006260;28;20123;-78
2024/02/02 06:12:31;;;;;;;0.10;0.10;;;8.40;99.90;;;;;;5008915;28;20024;-79
2024/02/02 06:14:57;;;;;;;0.10;0.10;;;8.40;99.90;;;;;;5012297;28;20685;-80
2024/02/02 06:17:22;;;;;;;0.10;0.10;;;8.30;99.90;;;;;;5008956;28;20037;-78
2024/02/02 06:19:48;;;;;;;0.10;0.10;;;8.20;99.90;;;;;;5008592;28;20041;-79
2024/02/02 06:22:14;;;;;;;0.10;0.10;;;8.20;99.90;;;;;;5007214;28;20095;-79
2024/02/02 06:24:39;;;;;;;0.00;0.00;;;8.20;99.90;;;;;;5009324;28;21014;-79
2024/02/02 06:27:05;;;;;;;0.00;0.00;;;8.30;99.90;;;;;;5009776;28;20038;-79
2024/02/02 06:29:32;;;;;;;0.10;0.10;;;8.10;99.90;;;;;;5008065;28;20036;-78
2024/02/02 06:31:58;;;;;;;0.10;0.10;;;8.00;99.90;;;;;;5007519;28;20573;-79
2024/02/02 06:34:23;;;;;;;0.10;0.10;;;7.90;99.90;;;;;;5006613;28;20124;-79
2024/02/02 06:36:49;;;;;;;0.10;0.10;;;7.90;99.90;;;;;;5010163;28;20041;-79
2024/02/02 06:39:15;;;;;;;0.10;0.10;;;7.90;99.90;;;;;;5011282;28;20057;-78
2024/02/02 06:41:41;;;;;;;0.10;0.10;;;7.90;99.90;;;;;;5011516;28;20036;-79
2024/02/02 06:44:07;;;;;;;0.10;0.10;;;7.90;99.90;;;;;;5011074;28;20065;-77
2024/02/02 06:46:32;;;;;;;0.30;0.30;;;8.00;99.90;;;;;;5010525;28;20536;-78
2024/02/02 06:48:58;;;;;;;0.03;0.03;;;7.90;99.90;;;;;;5008368;28;20140;-78
2024/02/02 06:51:23;;;;;;;2.33;0.75;;;7.90;99.90;;;;;;5007435;28;20041;-77
2024/02/02 06:53:51;;;;;;;0.10;0.10;;;8.00;99.90;;;;;;5011677;28;20030;-78
2024/02/02 06:56:38;;;;;;;0.10;0.10;;;8.10;99.90;;;;;;5009446;28;20026;-78
2024/02/02 06:59:05;;;;;;;0.10;0.10;;;8.20;99.90;;;;;;5010150;28;20030;-77
2024/02/02 07:01:31;;;;;;;;;;;8.20;99.90;;;;;;5009929;28;20041;-78
2024/02/02 07:03:57;;;;;;;0.10;0.10;;;8.10;99.90;;;;;;5010565;28;19921;-79
2024/02/02 07:06:23;;;;;;;0.10;0.10;;;8.10;99.90;;;;;;5011164;28;20272;-77
2024/02/02 07:08:48;;;;;;;0.10;0.10;;;8.20;99.90;;;;;;5005106;28;20681;-78
2024/02/02 07:11:48;;;;;;;0.10;0.10;;;8.20;99.90;;;;;;5007192;28;20025;-78
2024/02/02 07:14:40;;;;;;;0.38;0.38;;;8.20;99.90;;;;;;5002957;28;20040;-78
2024/02/02 07:17:20;;;;;;;0.25;0.25;;;8.30;99.90;;;;;;5004708;28;20026;-79
2024/02/02 07:19:46;;;;;;;0.10;0.10;;;8.20;99.90;;;;;;5009782;28;20588;-77
2024/02/02 07:22:38;;;;;;;0.10;0.10;;;8.30;99.90;;;;;;5007696;28;20025;-77
2024/02/02 07:25:19;;;;;;;0.10;0.10;;;8.30;99.90;;;;;;5006187;28;20034;-77
2024/02/02 07:27:59;;;;;;;0.10;0.10;;;8.40;99.90;;;;;;5009308;28;20077;-77
2024/02/02 07:30:31;;;;;;;0.10;0.10;;;8.30;99.90;;;;;;5010513;28;20030;-77
2024/02/02 07:33:00;;;;;;;0.20;0.20;;;8.30;99.90;;;;;;5007973;28;20033;-78
2024/02/02 07:35:34;;;;;;;0.10;0.10;;;8.40;99.90;;;;;;5008034;28;20040;-77
2024/02/02 07:38:06;;;;;;;0.00;0.00;;;8.40;99.90;;;;;;5006426;28;20160;-77
2024/02/02 07:40:38;;;;;;;0.10;0.10;;;8.40;99.90;;;;;;5007024;28;20057;-78
2024/02/02 07:43:04;;;;;;;1.20;1.10;;;8.40;99.90;;;;;;5009451;28;20069;-78
2024/02/02 07:45:29;;;;;;;0.10;0.10;;;8.50;99.90;;;;;;5008300;28;20478;-78
2024/02/02 07:47:56;;;;;;;1.95;1.85;;;8.60;99.90;;;;;;5010534;28;20662;-79
2024/02/02 07:50:22;;;;;;;0.10;0.10;;;8.50;99.90;;;;;;5007226;28;20029;-81
2024/02/02 07:52:47;;;;;;;0.10;0.10;;;8.60;99.90;;;;;;5010807;28;20052;-77
2024/02/02 07:55:13;;;;;;;0.10;0.10;;;8.60;99.90;;;;;;5010149;28;20037;-78
2024/02/02 07:57:38;;;;;;;0.10;0.10;;;8.70;99.90;;;;;;5007125;28;20076;-78
2024/02/02 08:00:05;;;;;;;0.10;0.10;;;8.60;99.90;;;;;;5010126;28;20668;-78
2024/02/02 08:02:31;;;;;;;0.10;0.10;;;8.70;99.90;;;;;;5010514;28;20034;-77
2024/02/02 08:04:56;;;;;;;0.20;0.20;;;8.70;99.90;;;;;;5010816;28;20563;-76
2024/02/02 08:07:22;;;;;;;0.10;0.10;;;8.60;99.90;;;;;;5011405;28;20516;-77
2024/02/02 08:09:48;;;;;;;0.10;0.10;;;8.70;99.90;;;;;;5009836;28;20723;-78
2024/02/02 08:12:13;;;;;;;0.75;0.75;;;8.70;99.90;;;;;;5013742;28;20025;-78
2024/02/02 08:14:39;;;;;;;0.00;0.00;;;8.80;99.90;;;;;;5012723;28;20032;-79
2024/02/02 08:17:09;;;;;;;0.10;0.10;;;8.80;99.90;;;;;;5009505;28;20047;-80
2024/02/02 08:19:35;;;;;;;0.10;0.10;;;8.90;99.90;;;;;;5006874;28;20113;-79
2024/02/02 08:22:01;;;;;;;0.10;0.10;;;8.90;99.90;;;;;;5008189;28;20121;-78
2024/02/02 08:24:26;;;;;;;0.10;0.10;;;8.90;99.90;;;;;;5008656;28;20640;-78
2024/02/02 08:26:53;;;;;;;0.00;0.00;;;8.90;99.90;;;;;;5007437;28;20052;-77
2024/02/02 08:29:19;;;;;;;0.10;0.10;;;9.00;99.90;;;;;;5008503;28;20022;-77
2024/02/02 08:31:44;;;;;;;0.00;0.00;;;9.10;99.90;;;;;;5007736;28;20033;-77
2024/02/02 08:34:11;;;;;;;0.00;0.00;;;9.10;99.90;;;;;;5016729;28;20009;-77
2024/02/02 08:36:38;;;;;;;0.10;0.10;;;9.10;99.90;;;;;;5007003;28;20030;-79
2024/02/02 08:39:08;;;;;;;0.10;0.10;;;9.10;99.90;;;;;;5021088;28;20022;-77
2024/02/02 08:41:35;;;;;;;0.63;0.63;;;9.20;99.90;;;;;;5023134;28;20038;-78
2024/02/02 08:44:01;;;;;;;;;;;9.20;99.90;;;;;;5018049;28;20033;-78
2024/02/02 08:46:27;;;;;;;0.05;0.05;;;9.20;99.90;;;;;;5015129;28;19921;-78
2024/02/02 08:48:55;;;;;;;0.10;0.10;;;9.40;99.90;;;;;;5019390;28;20565;-78
2024/02/02 08:51:23;;;;;;;0.00;0.00;;;9.40;99.90;;;;;;5015925;28;20029;-79
2024/02/02 08:53:52;;;;;;;0.10;0.10;;;9.30;99.90;;;;;;5024880;28;20017;-80
2024/02/02 08:56:18;;;;;;;0.10;0.10;;;9.40;99.90;;;;;;5010070;28;20038;-79
2024/02/02 08:58:44;;;;;;;0.00;0.00;;;9.40;99.90;;;;;;5018157;28;20088;-78
2024/02/02 09:01:42;;;;;;;0.10;0.10;;;9.60;99.90;;;;;;5006906;28;20040;-78
2024/02/02 09:04:39;;;;;;;0.10;0.10;;;9.70;99.90;;;;;;5014832;28;20029;-77
2024/02/02 09:07:04;;;;;;;0.05;0.05;;;9.40;99.90;;;;;;5011422;28;20038;-79
2024/02/02 09:09:31;;;;;;;0.10;0.10;;;9.60;99.90;;;;;;5010637;28;20030;-78
2024/02/02 09:11:56;;;;;;;0.05;0.05;;;9.80;99.90;;;;;;5011425;28;20548;-79
2024/02/02 09:14:23;;;;;;;0.25;0.25;;;10.00;99.90;;;;;;5010563;28;20071;-78
2024/02/02 09:16:52;;;;;;;0.17;0.17;;;9.90;99.90;;;;;;5009715;28;20048;-78
2024/02/02 09:19:18;;;;;;;0.80;0.47;;;9.90;99.90;;;;;;5010724;28;20556;-78
2024/02/02 09:21:44;;;;;;;1.07;0.97;;;10.00;99.90;;;;;;5012930;28;20527;-79
2024/02/02 09:24:26;;;;;;;0.25;0.25;;;10.00;99.90;;;;;;5008900;28;20026;-77
2024/02/02 09:26:51;;;;;;;0.20;0.20;;;10.00;99.90;;;;;;5007161;28;20030;-78
2024/02/02 09:29:18;;;;;;;0.10;0.10;;;10.00;99.90;;;;;;5010739;28;20032;-77
2024/02/02 09:31:44;;;;;;;0.00;0.00;;;10.10;99.90;;;;;;5011937;28;20044;-78
2024/02/02 09:34:18;;;;;;;0.10;0.10;;;9.90;99.90;;;;;;5010595;28;20038;-80
2024/02/02 09:36:44;;;;;;;0.03;0.03;;;10.10;99.90;;;;;;5012640;28;20056;-77
2024/02/02 09:39:44;;;;;;;0.00;0.00;;;10.40;99.90;;;;;;5011592;28;20029;-79
2024/02/02 09:42:31;;;;;;;0.05;0.05;;;10.50;99.90;;;;;;5000797;28;20030;-79
2024/02/02 09:45:03;;;;;;;2.35;0.80;;;10.80;99.90;;;;;;5010189;28;20105;-79
2024/02/02 09:47:51;;;;;;;0.10;0.10;;;11.20;99.90;;;;;;5006006;28;20026;-79
2024/02/02 09:50:38;;;;;;;0.08;0.08;;;11.30;99.90;;;;;;5025046;28;20036;-79
2024/02/02 09:53:15;;;;;;;0.08;0.08;;;11.00;99.90;;;;;;5022438;28;20032;-79
2024/02/02 09:56:06;;;;;;;0.10;0.10;;;10.80;99.90;;;;;;5015542;28;20647;-78
2024/02/02 09:58:48;;;;;;;0.00;0.00;;;11.00;99.90;;;;;;4988769;28;20027;-79
2024/02/02 10:01:58;;;;;;;0.10;0.10;;;11.00;99.90;;;;;;5004042;28;20113;-80
2024/02/02 10:04:46;;;;;;;0.08;0.08;;;10.90;99.90;;;;;;5007149;28;20045;-79
2024/02/02 10:07:32;;;;;;;0.00;0.00;;;11.00;99.90;;;;;;5017837;28;20139;-78
2024/02/02 10:10:30;;;;;;;0.10;0.10;;;11.30;99.90;;;;;;5015448;28;20109;-78
2024/02/02 10:13:45;;;;;;;0.05;0.05;;;11.40;99.90;;;;;;4982805;28;20038;-79
2024/02/02 10:16:23;;;;;;;0.00;0.00;;;11.10;99.90;;;;;;5006684;28;20048;-79
2024/02/02 10:19:10;;;;;;;0.10;0.10;;;11.50;99.90;;;;;;5010842;28;20466;-78
2024/02/02 10:21:57;;;;;;;0.10;0.10;;;11.70;99.90;;;;;;5019734;28;20422;-79
2024/02/02 10:24:47;;;;;;;0.10;0.10;;;11.80;99.90;;;;;;5003388;28;20050;-79
2024/02/02 10:27:36;;;;;;;0.00;0.00;;;11.60;99.90;;;;;;5010857;28;20069;-79
2024/02/02 10:30:27;;;;;;;0.10;0.10;;;11.60;99.90;;;;;;5009832;28;20057;-79
2024/02/02 10:33:11;;;;;;;0.10;0.10;;;11.50;99.90;;;;;;5001410;28;20040;-79
2024/02/02 10:35:58;;;;;;;0.10;0.10;;;11.20;99.90;;;;;;5008529;28;20664;-79
2024/02/02 10:38:33;;;;;;;0.15;0.15;;;12.00;99.90;;;;;;5012148;28;20109;-79
2024/02/02 10:41:08;;;;;;;0.10;0.10;;;12.80;99.90;;;;;;5009697;28;20053;-79
2024/02/02 10:43:55;;;;;;;0.40;0.40;;;13.40;99.90;;;;;;5008478;28;20426;-79
2024/02/02 10:46:25;;;;;;;0.00;0.00;;;13.20;99.90;;;;;;5005675;28;20176;-79
2024/02/02 10:49:18;;;;;;;0.00;0.00;;;12.50;99.90;;;;;;5011073;28;20577;-81
2024/02/02 10:52:13;;;;;;;0.10;0.10;;;12.00;99.90;;;;;;5009119;28;20026;-78
2024/02/02 10:54:57;;;;;;;1.10;1.10;;;11.40;99.90;;;;;;5008562;28;20049;-78
2024/02/02 10:57:40;;;;;;;0.10;0.10;;;11.70;99.90;;;;;;5006100;28;20040;-79
2024/02/02 11:00:17;;;;;;;0.08;0.08;;;12.30;99.90;;;;;;5006986;28;20033;-79
2024/02/02 11:03:04;;;;;;;0.75;0.65;;;12.90;99.90;;;;;;5008120;28;20456;-79
2024/02/02 11:05:33;;;;;;;0.10;0.10;;;13.10;99.90;;;;;;5017963;28;20038;-78
2024/02/02 11:08:02;;;;;;;0.00;0.00;;;13.40;99.90;;;;;;5014535;28;20017;-80
2024/02/02 11:10:35;;;;;;;0.30;0.30;;;13.30;99.90;;;;;;5012692;28;20037;-80
2024/02/02 11:13:25;;;;;;;0.30;0.30;;;13.00;99.90;;;;;;5010967;28;20056;-78
2024/02/02 11:16:12;;;;;;;0.30;0.30;;;13.20;99.90;;;;;;5011043;28;20034;-80
2024/02/02 11:18:43;;;;;;;0.10;0.10;;;13.50;99.90;;;;;;5007296;28;20425;-79
2024/02/02 11:21:27;;;;;;;0.10;0.10;;;13.80;99.90;;;;;;5001987;28;20069;-78
2024/02/02 11:24:26;;;;;;;0.00;0.00;;;14.10;99.90;;;;;;5011556;28;20511;-79
2024/02/02 11:27:27;;;;;;;0.10;0.10;;;13.80;99.90;;;;;;5003048;28;20038;-79
2024/02/02 11:30:05;;;;;;;0.25;0.25;;;13.50;99.90;;;;;;5009151;28;20064;-79
2024/02/02 11:32:49;;;;;;;0.00;0.00;;;13.20;99.90;;;;;;5008184;28;20405;-78
2024/02/02 11:35:46;;;;;;;0.08;0.08;;;13.00;99.90;;;;;;5011387;28;20126;-77
2024/02/02 11:38:23;;;;;;;0.00;0.00;;;13.00;99.90;;;;;;5007145;28;20845;-77
2024/02/02 11:40:51;;;;;;;0.15;0.15;;;13.30;99.90;;;;;;5008717;28;20086;-78
2024/02/02 11:43:18;;;;;;;0.45;0.45;;;13.80;99.90;;;;;;5008729;28;20049;-78
2024/02/02 11:45:46;;;;;;;0.00;0.00;;;13.50;99.90;;;;;;5009344;28;20654;-78
2024/02/02 11:48:41;;;;;;;0.35;0.35;;;13.10;99.90;;;;;;5008874;28;20032;-78
2024/02/02 11:51:09;;;;;;;0.57;0.57;;;12.80;99.90;;;;;;4996044;28;20049;-78
2024/02/02 11:53:35;;;;;;;;;;;12.20;99.90;;;;;;5015774;28;20032;-79
2024/02/02 11:56:06;;;;;;;0.28;0.28;;;12.00;99.90;;;;;;5006909;28;19913;-78
2024/02/02 11:58:35;;;;;;;0.08;0.08;;;11.80;99.90;;;;;;5011224;28;20033;-80
2024/02/02 12:01:16;;;;;;;0.65;0.65;;;11.60;99.90;;;;;;5010507;28;20025;-80
2024/02/02 12:03:52;;;;;;;0.93;0.85;;;11.70;99.90;;;;;;5012186;28;20065;-80
2024/02/02 12:06:19;;;;;;;0.47;0.47;;;12.60;99.90;;;;;;5011920;28;20026;-80
2024/02/02 12:09:14;;;;;;;0.00;0.00;;;13.40;99.90;;;;;;5008290;28;20025;-79
2024/02/02 12:11:45;;;;;;;0.10;0.10;;;13.70;98.50;;;;;;5001164;28;20030;-77
2024/02/02 12:14:23;;;;;;;0.38;0.38;;;13.50;96.60;;;;;;5006887;28;20041;-77
2024/02/02 12:16:50;;;;;;;0.00;0.00;;;13.40;96.90;;;;;;5008296;28;20022;-79
2024/02/02 12:19:16;;;;;;;0.05;0.05;;;13.00;95.90;;;;;;5008074;28;20050;-83
2024/02/02 12:21:44;;;;;;;0.73;0.50;;;12.80;96.40;;;;;;5009501;28;20068;-79
2024/02/02 12:24:11;;;;;;;0.20;0.20;;;12.60;96.90;;;;;;5007590;28;20026;-79
2024/02/02 12:26:36;;;;;;;;;;;12.30;97.80;;;;;;5001756;28;20867;-79
2024/02/02 12:29:02;;;;;;;0.15;0.15;;;12.30;98.80;;;;;;5008313;28;19917;-80
2024/02/02 12:31:28;;;;;;;0.60;0.60;;;12.20;99.20;;;;;;5010182;28;20116;-80
2024/02/02 12:33:54;;;;;;;0.10;0.10;;;12.20;99.40;;;;;;5009593;28;20036;-80
2024/02/02 12:36:21;;;;;;;0.10;0.10;;;12.10;99.40;;;;;;5012832;28;20090;-79
2024/02/02 12:38:47;;;;;;;0.10;0.10;;;12.20;99.60;;;;;;5011773;28;20045;-80
2024/02/02 12:41:13;;;;;;;0.10;0.10;;;12.40;98.50;;;;;;5014708;28;20017;-80
2024/02/02 12:43:44;;;;;;;0.07;0.07;;;12.60;98.80;;;;;;5010898;28;20054;-80
2024/02/02 12:46:10;;;;;;;1.15;1.15;;;12.50;98.40;;;;;;5016978;28;20044;-80
2024/02/02 12:48:36;;;;;;;0.00;0.00;;;12.50;98.20;;;;;;5012105;28;20026;-79
2024/02/02 12:51:01;;;;;;;0.10;0.10;;;12.40;97.10;;;;;;5012480;28;20093;-79
2024/02/02 12:53:27;;;;;;;0.00;0.00;;;12.30;98.20;;;;;;5015765;28;21472;-79
2024/02/02 12:55:53;;;;;;;0.00;0.00;;;12.20;98.80;;;;;;5018071;28;20105;-79
2024/02/02 12:58:19;;;;;;;0.03;0.03;;;12.00;99.00;;;;;;5014101;28;20029;-80
2024/02/02 13:00:45;;;;;;;0.00;0.00;;;11.80;98.50;;;;;;5010308;28;20033;-79
2024/02/02 13:03:12;;;;;;;0.50;0.50;;;11.90;98.90;;;;;;5008590;28;20165;-79
2024/02/02 13:05:39;;;;;;;0.00;0.00;;;11.80;97.80;;;;;;5008540;28;20791;-80
2024/02/02 13:08:05;;;;;;;0.00;0.00;;;11.80;97.60;;;;;;5006377;28;20045;-80